Time;durP1;ratioP1;P1;durP2;ratioP2;P2;SDS_P1;SDS_P2;PMS_P1;PMS_P2;Temp;Humidity;BMP_temperature;BMP_pressure;BME280_temperature;BME280_humidity;BME280_pressure;Samples;Min_cycle;Max_cycle;Signal;HPM_P1;HPM_P2
2023/11/09 00:00:22;;;;;;;1.97;1.70;;;;;;;;;;5124096;27;20520;-70
2023/11/09 00:02:49;;;;;;;1.70;1.50;;;;;;;;;;5122258;27;20480;-70
2023/11/09 00:05:15;;;;;;;2.00;1.80;;;;;;;;;;5124032;27;20518;-70
2023/11/09 00:07:43;;;;;;;2.27;2.00;;;;;;;;;;5117148;28;20454;-70
2023/11/09 00:10:10;;;;;;;3.90;1.90;;;;;;;;;;5120494;27;20527;-69
2023/11/09 00:12:36;;;;;;;3.83;2.33;;;;;;;;;;5122452;27;20478;-69
2023/11/09 00:15:03;;;;;;;3.93;2.37;;;;;;;;;;5122798;27;20480;-70
2023/11/09 00:17:30;;;;;;;2.27;2.07;;;;;;;;;;5112930;27;20447;-69
2023/11/09 00:19:56;;;;;;;2.40;1.93;;;;;;;;;;5121744;27;20496;-68
2023/11/09 00:22:23;;;;;;;3.50;1.97;;;;;;;;;;5097541;27;20446;-69
2023/11/09 00:24:51;;;;;;;2.80;1.60;;;;;;;;;;5108582;27;20462;-69
2023/11/09 00:27:18;;;;;;;3.57;1.87;;;;;;;;;;5112988;27;20486;-70
2023/11/09 00:29:44;;;;;;;5.13;3.07;;;;;;;;;;5122705;27;20538;-70
2023/11/09 00:32:11;;;;;;;2.03;1.83;;;;;;;;;;5118224;27;20493;-70
2023/11/09 00:34:38;;;;;;;2.80;1.97;;;;;;;;;;5125668;27;20523;-69
2023/11/09 00:37:04;;;;;;;2.60;2.03;;;;;;;;;;5116336;27;20488;-69
2023/11/09 00:39:31;;;;;;;6.67;2.10;;;;;;;;;;5107039;28;20471;-70
2023/11/09 00:41:59;;;;;;;2.60;2.20;;;;;;;;;;5112572;27;20456;-69
2023/11/09 00:44:26;;;;;;;3.13;1.97;;;;;;;;;;5122884;27;20451;-69
2023/11/09 00:46:52;;;;;;;3.37;2.10;;;;;;;;;;5114386;27;20454;-69
2023/11/09 00:49:19;;;;;;;2.90;1.73;;;;;;;;;;5108183;27;20521;-69
2023/11/09 00:51:45;;;;;;;1.77;1.67;;;;;;;;;;5122436;27;20909;-70
2023/11/09 00:54:11;;;;;;;2.27;2.07;;;;;;;;;;5113200;27;20666;-69
2023/11/09 00:56:38;;;;;;;2.60;2.20;;;;;;;;;;5118266;27;20506;-68
2023/11/09 00:59:06;;;;;;;6.93;2.20;;;;;;;;;;5117854;27;20496;-69
2023/11/09 01:01:32;;;;;;;2.53;2.13;;;;;;;;;;5119006;27;20519;-70
2023/11/09 01:03:59;;;;;;;3.13;2.13;;;;;;;;;;5116041;27;20793;-69
2023/11/09 01:06:25;;;;;;;5.10;2.23;;;;;;;;;;5121252;27;20445;-68
2023/11/09 01:08:52;;;;;;;2.03;1.83;;;;;;;;;;5117607;27;20522;-70
2023/11/09 01:11:22;;;;;;;5.83;2.20;;;;;;;;;;5119376;27;20449;-69
2023/11/09 01:13:48;;;;;;;2.30;2.03;;;;;;;;;;5118705;27;20485;-69
2023/11/09 01:16:16;;;;;;;3.70;2.60;;;;;;;;;;5123055;27;21195;-70
2023/11/09 01:18:42;;;;;;;3.43;1.90;;;;;;;;;;5122070;27;20538;-69
2023/11/09 01:21:09;;;;;;;3.10;2.30;;;;;;;;;;5106210;27;20546;-69
2023/11/09 01:23:35;;;;;;;2.23;2.03;;;;;;;;;;5118605;27;21162;-69
2023/11/09 01:26:02;;;;;;;2.90;2.10;;;;;;;;;;5120638;27;20449;-69
2023/11/09 01:28:29;;;;;;;4.87;2.10;;;;;;;;;;5114162;27;20457;-68
2023/11/09 01:30:55;;;;;;;4.80;2.60;;;;;;;;;;5117063;27;20572;-69
2023/11/09 01:33:23;;;;;;;2.90;2.40;;;;;;;;;;5119460;27;20490;-69
2023/11/09 01:35:49;;;;;;;2.77;2.57;;;;;;;;;;5119497;27;20485;-69
2023/11/09 01:38:17;;;;;;;4.57;2.97;;;;;;;;;;5111337;28;20507;-69
2023/11/09 01:40:51;;;;;;;3.70;2.20;;;;;;;;;;5118059;27;20939;-67
2023/11/09 01:43:17;;;;;;;3.80;2.50;;;;;;;;;;5111335;27;20500;-66
2023/11/09 01:45:45;;;;;;;3.07;2.30;;;;;;;;;;5120216;27;20526;-67
2023/11/09 01:48:12;;;;;;;4.60;2.50;;;;;;;;;;5120791;27;20951;-67
2023/11/09 01:50:39;;;;;;;3.47;2.53;;;;;;;;;;5112764;27;20454;-66
2023/11/09 01:53:07;;;;;;;2.97;2.07;;;;;;;;;;5113975;27;20555;-67
2023/11/09 01:55:35;;;;;;;6.27;2.40;;;;;;;;;;5117664;28;20453;-67
2023/11/09 01:58:03;;;;;;;6.37;2.53;;;;;;;;;;5119141;28;20544;-68
2023/11/09 02:00:30;;;;;;;2.93;2.57;;;;;;;;;;5113939;28;20457;-67
2023/11/09 02:02:56;;;;;;;3.30;2.50;;;;;;;;;;5114932;28;20865;-67
2023/11/09 02:05:23;;;;;;;4.00;2.90;;;;;;;;;;5117904;28;20450;-68
2023/11/09 02:07:53;;;;;;;3.73;2.37;;;;;;;;;;5119692;28;20556;-67
2023/11/09 02:10:21;;;;;;;3.57;2.20;;;;;;;;;;5120513;28;20548;-67
2023/11/09 02:12:47;;;;;;;3.00;2.10;;;;;;;;;;5112711;28;20454;-68
2023/11/09 02:15:14;;;;;;;5.60;2.43;;;;;;;;;;5110197;28;20943;-67
2023/11/09 02:17:40;;;;;;;3.40;2.63;;;;;;;;;;5119890;27;20450;-67
2023/11/09 02:20:07;;;;;;;2.33;2.10;;;;;;;;;;5126006;27;20530;-66
2023/11/09 02:22:36;;;;;;;2.80;2.23;;;;;;;;;;5120604;27;20442;-66
2023/11/09 02:25:04;;;;;;;3.07;2.40;;;;;;;;;;5114782;27;20513;-67
2023/11/09 02:27:31;;;;;;;3.10;2.03;;;;;;;;;;5126015;27;20818;-67
2023/11/09 02:29:57;;;;;;;3.10;1.87;;;;;;;;;;5121163;27;20514;-68
2023/11/09 02:32:23;;;;;;;2.53;1.50;;;;;;;;;;5120138;27;20576;-67
2023/11/09 02:34:50;;;;;;;2.20;2.00;;;;;;;;;;5114727;27;20501;-68
2023/11/09 02:37:19;;;;;;;4.20;2.60;;;;;;;;;;5120832;27;20529;-71
2023/11/09 02:39:51;;;;;;;3.30;2.07;;;;;;;;;;5121221;27;20462;-69
2023/11/09 02:42:19;;;;;;;2.27;1.80;;;;;;;;;;5122525;27;20928;-71
2023/11/09 02:44:46;;;;;;;2.60;2.20;;;;;;;;;;5125569;27;20483;-69
2023/11/09 02:47:12;;;;;;;2.10;1.90;;;;;;;;;;5122498;27;20505;-70
2023/11/09 02:49:39;;;;;;;2.20;2.00;;;;;;;;;;5129550;27;20521;-70
2023/11/09 02:52:06;;;;;;;1.77;1.67;;;;;;;;;;5113471;27;20953;-69
2023/11/09 02:54:32;;;;;;;4.93;2.07;;;;;;;;;;5119882;27;20477;-70
2023/11/09 02:56:59;;;;;;;1.60;1.50;;;;;;;;;;5116389;27;20446;-70
2023/11/09 02:59:27;;;;;;;2.33;2.13;;;;;;;;;;5126010;27;20482;-70
2023/11/09 03:01:54;;;;;;;1.93;1.70;;;;;;;;;;5120803;27;20548;-71
2023/11/09 03:04:20;;;;;;;2.47;1.70;;;;;;;;;;5119225;27;21014;-71
2023/11/09 03:06:47;;;;;;;2.00;1.90;;;;;;;;;;5118080;27;20505;-70
2023/11/09 03:09:16;;;;;;;2.30;2.00;;;;;;;;;;5118398;27;20450;-69
2023/11/09 03:11:43;;;;;;;1.90;1.70;;;;;;;;;;5116083;27;20521;-70
2023/11/09 03:14:10;;;;;;;4.20;1.53;;;;;;;;;;5117203;27;20572;-70
2023/11/09 03:16:38;;;;;;;2.50;1.73;;;;;;;;;;5124252;27;20442;-70
2023/11/09 03:19:06;;;;;;;4.40;1.83;;;;;;;;;;5119157;27;20762;-70
2023/11/09 03:21:33;;;;;;;3.20;1.80;;;;;;;;;;5111870;27;20500;-69
2023/11/09 03:23:59;;;;;;;2.60;2.07;;;;;;;;;;5122424;27;20506;-71
2023/11/09 03:26:26;;;;;;;5.53;1.50;;;;;;;;;;5119844;27;20573;-70
2023/11/09 03:28:52;;;;;;;1.50;1.40;;;;;;;;;;5122442;27;20454;-70
2023/11/09 03:31:18;;;;;;;4.50;3.00;;;;;;;;;;5114751;27;20518;-71
2023/11/09 03:33:46;;;;;;;2.50;2.10;;;;;;;;;;5117979;27;20792;-70
2023/11/09 03:36:17;;;;;;;2.87;1.80;;;;;;;;;;5123275;27;20509;-70
2023/11/09 03:38:45;;;;;;;2.73;2.03;;;;;;;;;;5121387;27;20526;-68
2023/11/09 03:41:12;;;;;;;2.57;2.00;;;;;;;;;;5116374;27;20470;-68
2023/11/09 03:43:40;;;;;;;1.60;1.50;;;;;;;;;;5114403;27;20453;-66
2023/11/09 03:46:11;;;;;;;2.93;1.73;;;;;;;;;;5120490;27;20517;-68
2023/11/09 03:48:38;;;;;;;1.90;1.70;;;;;;;;;;5124235;27;20462;-68
2023/11/09 03:51:06;;;;;;;1.83;1.63;;;;;;;;;;5120768;27;20545;-68
2023/11/09 03:53:32;;;;;;;1.50;1.40;;;;;;;;;;5113965;27;20648;-68
2023/11/09 03:55:58;;;;;;;3.00;1.90;;;;;;;;;;5126857;27;20540;-67
2023/11/09 03:58:25;;;;;;;2.80;2.00;;;;;;;;;;5122016;27;20466;-68
2023/11/09 04:00:51;;;;;;;2.13;1.67;;;;;;;;;;5118850;27;20526;-69
2023/11/09 04:03:17;;;;;;;3.00;1.90;;;;;;;;;;5118891;27;20497;-68
2023/11/09 04:05:44;;;;;;;4.40;2.20;;;;;;;;;;5116001;27;20503;-68
2023/11/09 04:08:12;;;;;;;1.87;1.77;;;;;;;;;;5123438;27;20487;-69
2023/11/09 04:10:38;;;;;;;2.57;1.73;;;;;;;;;;5127905;27;20512;-68
2023/11/09 04:13:04;;;;;;;3.03;2.30;;;;;;;;;;5122019;27;20481;-67
2023/11/09 04:15:31;;;;;;;1.97;1.60;;;;;;;;;;5125901;27;20896;-68
2023/11/09 04:17:57;;;;;;;1.57;1.47;;;;;;;;;;5130493;27;20468;-67
2023/11/09 04:20:24;;;;;;;2.33;1.77;;;;;;;;;;5110800;27;20489;-66
2023/11/09 04:22:50;;;;;;;1.87;1.77;;;;;;;;;;5103600;27;20504;-67
2023/11/09 04:25:18;;;;;;;1.67;1.50;;;;;;;;;;5112667;27;20509;-66
2023/11/09 04:27:45;;;;;;;1.97;1.87;;;;;;;;;;5117474;27;20450;-66
2023/11/09 04:30:16;;;;;;;2.77;1.93;;;;;;;;;;5119284;27;20496;-69
2023/11/09 04:32:42;;;;;;;2.00;1.80;;;;;;;;;;5122823;27;20439;-67
2023/11/09 04:35:08;;;;;;;1.63;1.50;;;;;;;;;;5119730;27;20482;-67
2023/11/09 04:37:35;;;;;;;2.50;1.80;;;;;;;;;;5122997;27;20448;-69
2023/11/09 04:40:12;;;;;;;2.20;1.87;;;;;;;;;;5117970;27;20243;-68
2023/11/09 04:42:40;;;;;;;2.43;1.50;;;;;;;;;;5112816;28;20449;-68
2023/11/09 04:45:11;;;;;;;3.40;2.30;;;;;;;;;;5107362;28;20498;-68
2023/11/09 04:47:41;;;;;;;3.00;1.63;;;;;;;;;;5113778;27;20475;-68
2023/11/09 04:50:13;;;;;;;2.67;1.50;;;;;;;;;;5119577;27;20454;-67
2023/11/09 04:52:44;;;;;;;1.40;1.30;;;;;;;;;;5120742;27;20481;-67
2023/11/09 04:55:12;;;;;;;2.73;1.80;;;;;;;;;;5121537;27;20509;-68
2023/11/09 05:08:38;;;;;;;2.17;1.60;;;;;;;;;;5119236;27;20524;-67
2023/11/09 05:11:05;;;;;;;2.83;1.87;;;;;;;;;;5118427;27;20453;-68
2023/11/09 05:13:32;;;;;;;2.90;1.80;;;;;;;;;;5113656;28;20478;-69
2023/11/09 05:15:59;;;;;;;2.20;1.80;;;;;;;;;;5110986;27;20570;-67
2023/11/09 05:18:26;;;;;;;3.20;1.63;;;;;;;;;;5118776;27;20516;-68
2023/11/09 05:20:52;;;;;;;2.23;1.60;;;;;;;;;;5114855;28;20452;-69
2023/11/09 05:23:19;;;;;;;1.63;1.53;;;;;;;;;;5115674;27;21009;-68
2023/11/09 05:25:45;;;;;;;1.60;1.50;;;;;;;;;;5117766;27;20450;-67
2023/11/09 05:28:12;;;;;;;2.03;1.53;;;;;;;;;;5116390;28;20948;-68
2023/11/09 05:30:40;;;;;;;1.37;1.27;;;;;;;;;;5113934;28;20503;-68
2023/11/09 05:33:06;;;;;;;1.50;1.40;;;;;;;;;;5106164;28;20493;-68
2023/11/09 05:35:33;;;;;;;2.00;1.47;;;;;;;;;;5100200;28;21161;-69
2023/11/09 05:38:00;;;;;;;1.70;1.40;;;;;;;;;;5093890;28;20502;-65
2023/11/09 05:40:26;;;;;;;3.07;1.70;;;;;;;;;;5100218;28;20451;-65
2023/11/09 05:42:53;;;;;;;1.70;1.60;;;;;;;;;;5088845;28;20468;-65
2023/11/09 05:45:19;;;;;;;2.70;1.60;;;;;;;;;;5088918;28;20482;-64
2023/11/09 05:47:47;;;;;;;2.47;1.53;;;;;;;;;;5097295;28;21027;-65
2023/11/09 05:50:13;;;;;;;1.43;1.33;;;;;;;;;;5097503;28;20538;-65
2023/11/09 05:52:41;;;;;;;3.77;1.77;;;;;;;;;;5100920;28;20481;-65
2023/11/09 05:55:08;;;;;;;1.80;1.70;;;;;;;;;;5091664;28;20605;-65
2023/11/09 05:57:34;;;;;;;1.63;1.53;;;;;;;;;;5094585;28;20479;-65
2023/11/09 06:00:00;;;;;;;1.60;1.50;;;;;;;;;;5097681;28;21042;-65
2023/11/09 06:02:27;;;;;;;1.70;1.50;;;;;;;;;;5086173;28;20527;-65
2023/11/09 06:04:55;;;;;;;1.80;1.53;;;;;;;;;;5097180;28;20459;-68
2023/11/09 06:07:21;;;;;;;1.83;1.50;;;;;;;;;;5095918;28;20709;-64
2023/11/09 06:09:48;;;;;;;1.30;1.20;;;;;;;;;;5084954;28;21258;-62
2023/11/09 06:12:15;;;;;;;3.17;1.60;;;;;;;;;;5093758;28;21024;-65
2023/11/09 06:14:42;;;;;;;1.40;1.30;;;;;;;;;;5101260;28;20486;-65
2023/11/09 06:17:10;;;;;;;1.70;1.60;;;;;;;;;;5096821;28;20443;-66
2023/11/09 06:19:37;;;;;;;1.70;1.33;;;;;;;;;;5106136;28;20532;-66
2023/11/09 06:22:06;;;;;;;2.50;1.93;;;;;;;;;;5104835;28;20454;-66
2023/11/09 06:24:32;;;;;;;2.10;1.30;;;;;;;;;;5102772;28;20475;-66
2023/11/09 06:27:00;;;;;;;3.23;1.90;;;;;;;;;;5099041;28;20489;-66
2023/11/09 06:29:27;;;;;;;2.10;1.40;;;;;;;;;;5101604;28;20446;-66
2023/11/09 06:31:54;;;;;;;4.13;2.30;;;;;;;;;;5110286;28;20490;-66
2023/11/09 06:34:20;;;;;;;3.40;2.03;;;;;;;;;;5117358;28;20458;-66
2023/11/09 06:36:47;;;;;;;1.40;1.20;;;;;;;;;;5112675;28;20483;-66
2023/11/09 06:39:16;;;;;;;1.70;1.60;;;;;;;;;;5113466;28;20518;-66
2023/11/09 06:41:43;;;;;;;2.20;1.57;;;;;;;;;;5109061;28;20537;-66
2023/11/09 06:44:10;;;;;;;2.10;1.87;;;;;;;;;;5114905;28;20558;-65
2023/11/09 06:46:37;;;;;;;2.70;1.47;;;;;;;;;;5111975;28;20442;-66
2023/11/09 06:49:04;;;;;;;1.37;1.27;;;;;;;;;;5113449;28;20450;-67
2023/11/09 06:51:30;;;;;;;2.70;1.40;;;;;;;;;;5117001;28;20522;-66
2023/11/09 06:53:56;;;;;;;1.60;1.50;;;;;;;;;;5114126;28;20550;-65
2023/11/09 06:56:24;;;;;;;2.40;1.60;;;;;;;;;;5109173;28;20932;-66
2023/11/09 06:58:51;;;;;;;2.10;1.60;;;;;;;;;;5110531;28;20529;-66
2023/11/09 07:01:17;;;;;;;2.13;1.67;;;;;;;;;;5111101;28;20591;-66
2023/11/09 07:03:43;;;;;;;1.97;1.80;;;;;;;;;;5118357;28;20496;-66
2023/11/09 07:06:10;;;;;;;3.07;2.77;;;;;;;;;;5124410;27;20450;-67
2023/11/09 07:08:36;;;;;;;4.17;3.10;;;;;;;;;;5120429;27;20450;-65
2023/11/09 07:11:03;;;;;;;2.10;1.90;;;;;;;;;;5108732;28;20477;-66
2023/11/09 07:13:30;;;;;;;2.60;2.40;;;;;;;;;;5111621;27;20480;-65
2023/11/09 07:15:57;;;;;;;2.27;2.07;;;;;;;;;;5120890;28;20482;-67
2023/11/09 07:18:23;;;;;;;2.10;1.80;;;;;;;;;;5118623;27;20464;-66
2023/11/09 07:20:50;;;;;;;2.90;2.13;;;;;;;;;;5109073;28;20470;-66
2023/11/09 07:23:17;;;;;;;1.60;1.50;;;;;;;;;;5116465;27;20457;-66
2023/11/09 07:25:44;;;;;;;1.73;1.63;;;;;;;;;;5120197;27;20456;-66
2023/11/09 07:28:11;;;;;;;1.63;1.53;;;;;;;;;;5114265;27;20792;-66
2023/11/09 07:30:39;;;;;;;2.27;2.10;;;;;;;;;;5121430;27;20553;-66
2023/11/09 07:33:06;;;;;;;1.60;1.50;;;;;;;;;;5121390;27;20474;-66
2023/11/09 07:35:32;;;;;;;2.20;1.50;;;;;;;;;;5119747;27;20494;-66
2023/11/09 07:37:58;;;;;;;1.43;1.33;;;;;;;;;;5117940;28;20446;-65
2023/11/09 07:40:27;;;;;;;1.60;1.50;;;;;;;;;;5120645;27;20465;-65
2023/11/09 07:42:54;;;;;;;1.37;1.27;;;;;;;;;;5119011;27;20481;-64
2023/11/09 07:45:22;;;;;;;1.77;1.60;;;;;;;;;;5112761;28;20446;-66
2023/11/09 07:47:49;;;;;;;2.53;1.40;;;;;;;;;;5112664;27;20443;-65
2023/11/09 07:50:16;;;;;;;1.70;1.53;;;;;;;;;;5117218;27;20477;-65
2023/11/09 07:52:42;;;;;;;1.53;1.43;;;;;;;;;;5119572;27;20480;-66
2023/11/09 07:55:10;;;;;;;1.60;1.50;;;;;;;;;;5115679;27;20519;-63
2023/11/09 07:57:37;;;;;;;2.23;1.47;;;;;;;;;;5105504;28;20443;-66
2023/11/09 08:00:05;;;;;;;1.60;1.50;;;;;;;;;;5111008;27;20549;-66
2023/11/09 08:02:31;;;;;;;1.43;1.33;;;;;;;;;;5115427;27;20924;-66
2023/11/09 08:04:59;;;;;;;2.57;1.90;;;;;;;;;;5108256;27;20455;-66
2023/11/09 08:07:25;;;;;;;2.17;1.80;;;;;;;;;;5106291;28;20471;-66
2023/11/09 08:09:52;;;;;;;2.40;1.60;;;;;;;;;;5113877;28;20478;-70
2023/11/09 08:12:18;;;;;;;4.53;1.80;;;;;;;;;;5112698;27;20451;-69
2023/11/09 08:14:44;;;;;;;6.17;1.40;;;;;;;;;;5115403;28;20450;-69
2023/11/09 08:17:11;;;;;;;1.77;1.67;;;;;;;;;;5114328;27;20449;-73
2023/11/09 08:19:37;;;;;;;1.93;1.73;;;;;;;;;;5116220;28;20455;-70
2023/11/09 08:22:05;;;;;;;2.60;1.70;;;;;;;;;;5115496;28;20481;-71
2023/11/09 08:24:32;;;;;;;2.00;1.80;;;;;;;;;;5118340;27;20462;-74
2023/11/09 08:26:59;;;;;;;2.77;1.57;;;;;;;;;;5115736;27;20533;-74
2023/11/09 08:29:25;;;;;;;1.90;1.50;;;;;;;;;;5115438;27;20505;-70
2023/11/09 08:31:51;;;;;;;1.93;1.50;;;;;;;;;;5117418;28;20520;-70
2023/11/09 08:34:18;;;;;;;2.00;1.63;;;;;;;;;;5115861;28;20469;-71
2023/11/09 08:36:44;;;;;;;2.00;1.70;;;;;;;;;;5117770;28;20506;-72
2023/11/09 08:39:18;;;;;;;1.90;1.60;;;;;;;;;;5121437;27;20606;-76
2023/11/09 08:41:45;;;;;;;1.37;1.17;;;;;;;;;;5118111;28;20454;-71
2023/11/09 08:44:11;;;;;;;1.60;1.50;;;;;;;;;;5115418;27;20454;-73
2023/11/09 08:46:38;;;;;;;1.70;1.60;;;;;;;;;;5115805;27;20469;-72
2023/11/09 08:49:05;;;;;;;1.20;1.10;;;;;;;;;;5112228;28;20490;-68
2023/11/09 08:51:31;;;;;;;2.20;1.50;;;;;;;;;;5109097;27;20453;-71
2023/11/09 08:53:57;;;;;;;1.27;1.17;;;;;;;;;;5115012;27;20475;-70
2023/11/09 08:56:25;;;;;;;1.37;1.27;;;;;;;;;;5114894;27;20578;-70
2023/11/09 08:58:52;;;;;;;2.70;1.50;;;;;;;;;;5114578;28;20515;-70
2023/11/09 09:01:18;;;;;;;1.83;1.63;;;;;;;;;;5113735;28;20455;-69
2023/11/09 09:03:45;;;;;;;2.37;1.20;;;;;;;;;;5102705;27;20545;-69
2023/11/09 09:06:12;;;;;;;2.73;1.60;;;;;;;;;;5117431;28;20470;-69
2023/11/09 09:08:38;;;;;;;2.10;1.60;;;;;;;;;;5112249;28;21044;-72
2023/11/09 09:11:05;;;;;;;1.70;1.10;;;;;;;;;;5118636;28;20485;-70
2023/11/09 09:13:33;;;;;;;2.43;1.60;;;;;;;;;;5117378;28;20450;-69
2023/11/09 09:16:00;;;;;;;1.70;1.47;;;;;;;;;;5116011;27;20486;-71
2023/11/09 09:18:26;;;;;;;1.63;1.40;;;;;;;;;;5111810;27;20450;-68
2023/11/09 09:20:53;;;;;;;2.77;1.57;;;;;;;;;;5115055;28;20510;-68
2023/11/09 09:23:22;;;;;;;1.10;1.00;;;;;;;;;;5120984;27;20517;-67
2023/11/09 09:25:49;;;;;;;1.27;1.17;;;;;;;;;;5120960;27;20454;-69
2023/11/09 09:28:15;;;;;;;1.20;1.10;;;;;;;;;;5115616;28;20545;-67
2023/11/09 09:30:44;;;;;;;1.63;1.00;;;;;;;;;;5110604;28;20985;-68
2023/11/09 09:33:12;;;;;;;1.87;1.37;;;;;;;;;;5114250;27;20477;-71
2023/11/09 09:35:40;;;;;;;1.57;1.20;;;;;;;;;;5117968;28;20569;-69
2023/11/09 09:38:06;;;;;;;1.27;1.17;;;;;;;;;;5120921;27;20471;-70
2023/11/09 09:40:36;;;;;;;1.23;1.13;;;;;;;;;;5112774;28;20514;-68
2023/11/09 09:43:02;;;;;;;1.93;1.43;;;;;;;;;;5110398;28;21013;-68
2023/11/09 09:45:30;;;;;;;2.30;1.50;;;;;;;;;;5103508;28;20471;-69
2023/11/09 09:48:01;;;;;;;1.43;1.33;;;;;;;;;;5116633;28;20549;-68
2023/11/09 09:50:29;;;;;;;3.57;1.50;;;;;;;;;;5115749;28;20636;-70
2023/11/09 09:52:56;;;;;;;1.40;1.30;;;;;;;;;;5108219;28;20511;-71
2023/11/09 09:55:24;;;;;;;1.40;1.30;;;;;;;;;;5114997;28;20490;-72
2023/11/09 09:57:53;;;;;;;3.47;1.33;;;;;;;;;;5113816;28;20445;-69
2023/11/09 10:00:24;;;;;;;2.60;1.60;;;;;;;;;;5113521;28;20462;-70
2023/11/09 10:02:51;;;;;;;3.13;2.10;;;;;;;;;;5116998;28;20473;-67
2023/11/09 10:05:19;;;;;;;4.03;2.30;;;;;;;;;;5117199;28;20450;-71
2023/11/09 10:08:00;;;;;;;3.60;2.20;;;;;;;;;;5111123;28;20459;-75
2023/11/09 10:10:27;;;;;;;2.70;1.93;;;;;;;;;;5116763;28;20897;-74
2023/11/09 10:12:55;;;;;;;3.27;2.20;;;;;;;;;;5118450;28;20450;-68
2023/11/09 10:15:24;;;;;;;2.30;2.07;;;;;;;;;;5121099;28;20997;-70
2023/11/09 10:17:51;;;;;;;4.23;2.40;;;;;;;;;;5118885;28;20441;-67
2023/11/09 10:20:20;;;;;;;2.70;2.27;;;;;;;;;;5117425;28;20491;-69
2023/11/09 10:22:47;;;;;;;3.53;2.30;;;;;;;;;;5119263;28;20468;-66
2023/11/09 10:25:14;;;;;;;3.40;2.60;;;;;;;;;;5111621;28;20475;-72
2023/11/09 10:27:40;;;;;;;3.17;2.33;;;;;;;;;;5107405;28;20521;-69
2023/11/09 10:30:08;;;;;;;5.23;2.40;;;;;;;;;;5113239;28;20954;-69
2023/11/09 10:32:36;;;;;;;4.53;2.00;;;;;;;;;;5108882;28;20482;-67
2023/11/09 10:35:02;;;;;;;1.53;1.43;;;;;;;;;;5111999;28;20442;-68
2023/11/09 10:37:33;;;;;;;2.03;1.83;;;;;;;;;;5118099;28;20493;-70
2023/11/09 10:40:04;;;;;;;2.10;1.87;;;;;;;;;;5122353;27;20460;-72
2023/11/09 10:42:31;;;;;;;3.23;1.90;;;;;;;;;;5118263;28;20453;-73
2023/11/09 10:44:58;;;;;;;2.83;1.70;;;;;;;;;;5119158;27;20461;-70
2023/11/09 10:47:25;;;;;;;3.23;1.50;;;;;;;;;;5112768;27;20661;-73
2023/11/09 10:49:53;;;;;;;2.20;1.80;;;;;;;;;;5110842;28;20493;-70
2023/11/09 10:52:21;;;;;;;3.10;1.57;;;;;;;;;;5116552;27;21246;-72
2023/11/09 10:54:51;;;;;;;5.30;2.00;;;;;;;;;;5119708;27;20454;-68
2023/11/09 10:57:18;;;;;;;1.73;1.63;;;;;;;;;;5121292;28;20503;-69
2023/11/09 10:59:48;;;;;;;1.67;1.33;;;;;;;;;;5120270;27;20512;-69
2023/11/09 11:02:18;;;;;;;1.83;1.63;;;;;;;;;;5121242;27;20536;-69
2023/11/09 11:04:49;;;;;;;1.97;1.73;;;;;;;;;;5109269;28;20545;-72
2023/11/09 11:07:17;;;;;;;2.67;1.63;;;;;;;;;;5127096;27;20522;-71
2023/11/09 11:09:44;;;;;;;2.30;1.37;;;;;;;;;;5114425;28;20485;-73
2023/11/09 11:12:14;;;;;;;1.63;1.53;;;;;;;;;;5121365;27;20445;-74
2023/11/09 11:14:41;;;;;;;1.87;1.70;;;;;;;;;;5122696;28;20533;-72
2023/11/09 11:17:27;;;;;;;1.80;1.60;;;;;;;;;;5120422;28;20490;-75
2023/11/09 11:20:08;;;;;;;1.90;1.60;;;;;;;;;;5121361;27;20461;-69
2023/11/09 11:22:56;;;;;;;1.83;1.70;;;;;;;;;;5108534;27;20509;-69
2023/11/09 11:25:30;;;;;;;2.20;2.00;;;;;;;;;;5100637;28;20474;-70
2023/11/09 11:27:58;;;;;;;2.53;1.80;;;;;;;;;;5119220;27;20446;-69
2023/11/09 11:30:25;;;;;;;2.47;2.23;;;;;;;;;;5116573;27;20466;-70
2023/11/09 11:32:54;;;;;;;2.60;2.40;;;;;;;;;;5117246;27;20433;-74
2023/11/09 11:35:38;;;;;;;4.00;2.57;;;;;;;;;;5115268;28;20974;-70
2023/11/09 11:38:06;;;;;;;2.70;2.50;;;;;;;;;;5113076;27;20474;-73
2023/11/09 11:40:33;;;;;;;2.63;2.43;;;;;;;;;;5109512;28;20556;-72
2023/11/09 11:43:02;;;;;;;4.93;3.00;;;;;;;;;;5117723;28;20447;-71
2023/11/09 11:45:29;;;;;;;3.27;2.20;;;;;;;;;;5112336;28;20478;-70
2023/11/09 11:47:59;;;;;;;4.37;3.00;;;;;;;;;;5117804;28;20481;-68
2023/11/09 11:50:26;;;;;;;3.87;2.80;;;;;;;;;;5108987;27;20454;-69
2023/11/09 11:52:56;;;;;;;3.33;2.90;;;;;;;;;;5119075;28;20643;-74
2023/11/09 11:55:23;;;;;;;3.10;2.80;;;;;;;;;;5126931;27;20530;-72
2023/11/09 11:58:05;;;;;;;3.07;2.80;;;;;;;;;;5121706;27;20514;-72
2023/11/09 12:00:38;;;;;;;4.63;3.20;;;;;;;;;;5117664;28;20454;-69
2023/11/09 12:03:07;;;;;;;3.70;2.60;;;;;;;;;;5117845;28;20780;-71
2023/11/09 12:05:34;;;;;;;3.17;2.83;;;;;;;;;;5116023;28;20991;-70
2023/11/09 12:08:02;;;;;;;5.93;3.07;;;;;;;;;;5110561;27;20473;-71
2023/11/09 12:10:29;;;;;;;3.23;2.93;;;;;;;;;;5121899;27;20458;-70
2023/11/09 12:12:56;;;;;;;2.97;2.73;;;;;;;;;;5115634;28;20451;-73
2023/11/09 12:15:28;;;;;;;3.10;2.90;;;;;;;;;;5117080;27;20457;-72
2023/11/09 12:17:54;;;;;;;3.20;2.60;;;;;;;;;;5110926;28;20466;-69
2023/11/09 12:20:21;;;;;;;2.73;2.53;;;;;;;;;;5120638;27;20451;-69
2023/11/09 12:22:49;;;;;;;2.50;2.40;;;;;;;;;;5113958;27;20657;-71
2023/11/09 12:25:16;;;;;;;4.53;1.80;;;;;;;;;;5113383;28;20924;-71
2023/11/09 12:27:45;;;;;;;2.30;2.10;;;;;;;;;;5117886;28;20445;-73
2023/11/09 12:30:12;;;;;;;2.40;2.10;;;;;;;;;;5118910;27;20482;-68
2023/11/09 12:32:40;;;;;;;1.90;1.80;;;;;;;;;;5116103;27;20433;-71
2023/11/09 12:35:13;;;;;;;2.77;2.07;;;;;;;;;;5103245;28;20465;-70
2023/11/09 12:37:42;;;;;;;3.67;3.03;;;;;;;;;;5111261;27;20559;-72
2023/11/09 12:40:10;;;;;;;2.90;2.70;;;;;;;;;;5111654;28;20448;-71
2023/11/09 12:42:39;;;;;;;2.57;2.37;;;;;;;;;;5111353;27;20522;-70
2023/11/09 12:45:10;;;;;;;4.70;2.37;;;;;;;;;;5107570;28;20451;-70
2023/11/09 12:47:38;;;;;;;3.03;2.80;;;;;;;;;;5116628;27;20483;-70
2023/11/09 12:50:13;;;;;;;2.80;2.60;;;;;;;;;;5118787;27;20458;-71
2023/11/09 12:52:39;;;;;;;3.87;2.97;;;;;;;;;;5116774;28;20673;-72
2023/11/09 12:55:06;;;;;;;4.13;2.57;;;;;;;;;;5115034;28;20465;-69
2023/11/09 12:57:35;;;;;;;5.80;3.03;;;;;;;;;;5114850;28;20462;-71
2023/11/09 13:00:04;;;;;;;2.40;2.30;;;;;;;;;;5114950;27;20480;-70
2023/11/09 13:02:42;;;;;;;2.80;2.60;;;;;;;;;;5117666;28;20480;-70
2023/11/09 13:05:13;;;;;;;3.43;2.43;;;;;;;;;;5115382;28;20962;-70
2023/11/09 13:07:46;;;;;;;3.17;2.97;;;;;;;;;;5118377;27;20446;-72
2023/11/09 13:10:19;;;;;;;4.43;2.60;;;;;;;;;;5105626;28;20559;-68
2023/11/09 13:12:46;;;;;;;3.80;2.87;;;;;;;;;;5120841;27;20518;-70
2023/11/09 13:15:20;;;;;;;4.60;2.67;;;;;;;;;;5115192;28;20474;-69
2023/11/09 13:17:50;;;;;;;3.53;3.23;;;;;;;;;;5116131;27;20518;-70
2023/11/09 13:20:27;;;;;;;4.47;3.10;;;;;;;;;;5120321;27;20495;-68
2023/11/09 13:22:56;;;;;;;3.97;2.80;;;;;;;;;;5118169;28;20466;-72
2023/11/09 13:25:27;;;;;;;3.50;3.20;;;;;;;;;;5113564;28;20450;-68
2023/11/09 13:27:53;;;;;;;5.27;3.23;;;;;;;;;;5118088;28;20443;-68
2023/11/09 13:30:20;;;;;;;3.07;2.87;;;;;;;;;;5120075;27;20484;-71
2023/11/09 13:32:51;;;;;;;4.70;3.00;;;;;;;;;;5124968;27;20453;-67
2023/11/09 13:35:24;;;;;;;3.97;2.27;;;;;;;;;;5112478;27;20549;-70
2023/11/09 13:37:57;;;;;;;7.00;3.10;;;;;;;;;;5118184;27;20626;-70
2023/11/09 13:40:35;;;;;;;6.37;3.10;;;;;;;;;;5119101;27;20503;-74
2023/11/09 13:43:08;;;;;;;2.67;2.47;;;;;;;;;;5110832;28;20490;-74
2023/11/09 13:45:35;;;;;;;5.43;2.50;;;;;;;;;;5111151;28;20482;-70
2023/11/09 13:48:09;;;;;;;4.70;2.60;;;;;;;;;;5114723;27;20450;-70
2023/11/09 13:50:37;;;;;;;4.77;2.03;;;;;;;;;;5110419;28;20543;-69
2023/11/09 13:53:16;;;;;;;4.23;2.40;;;;;;;;;;5114899;28;20487;-69
2023/11/09 13:55:59;;;;;;;4.03;2.33;;;;;;;;;;5117445;27;21004;-73
2023/11/09 13:58:25;;;;;;;2.90;2.57;;;;;;;;;;5106212;28;20516;-73
2023/11/09 14:00:54;;;;;;;2.87;2.67;;;;;;;;;;5114331;27;20507;-73
2023/11/09 14:03:21;;;;;;;6.27;2.87;;;;;;;;;;5100364;28;20919;-71
2023/11/09 14:05:50;;;;;;;6.73;3.50;;;;;;;;;;5113332;28;20486;-73
2023/11/09 14:08:20;;;;;;;6.37;3.17;;;;;;;;;;5111712;28;20751;-71
2023/11/09 14:10:48;;;;;;;5.30;3.30;;;;;;;;;;5125574;28;20497;-71
2023/11/09 14:13:14;;;;;;;6.60;3.10;;;;;;;;;;5117469;28;20437;-71
2023/11/09 14:15:49;;;;;;;4.13;2.87;;;;;;;;;;5115258;27;20465;-66
2023/11/09 14:18:39;;;;;;;5.80;2.90;;;;;;;;;;5113745;28;20488;-71
2023/11/09 14:21:17;;;;;;;4.10;3.40;;;;;;;;;;5110847;28;20446;-73
2023/11/09 14:23:43;;;;;;;3.23;2.63;;;;;;;;;;5117930;27;20462;-72
2023/11/09 14:26:10;;;;;;;5.57;3.77;;;;;;;;;;5115659;28;20451;-71
2023/11/09 14:28:36;;;;;;;6.63;3.23;;;;;;;;;;5122243;27;20453;-69
2023/11/09 14:31:06;;;;;;;3.77;2.83;;;;;;;;;;5118554;27;20485;-71
2023/11/09 14:33:33;;;;;;;5.00;2.90;;;;;;;;;;5126118;27;20451;-70
2023/11/09 14:35:59;;;;;;;5.40;2.80;;;;;;;;;;5119651;28;20449;-73
2023/11/09 14:38:28;;;;;;;5.37;3.00;;;;;;;;;;5122318;27;20975;-72
2023/11/09 14:40:57;;;;;;;6.57;2.87;;;;;;;;;;5120464;27;20520;-73
2023/11/09 14:43:25;;;;;;;3.87;2.50;;;;;;;;;;5110159;28;20475;-70
2023/11/09 14:45:52;;;;;;;7.97;3.70;;;;;;;;;;5120249;28;20939;-71
2023/11/09 14:48:22;;;;;;;4.37;2.93;;;;;;;;;;5116892;27;20449;-72
2023/11/09 14:50:48;;;;;;;11.60;3.70;;;;;;;;;;5110884;28;20466;-72
2023/11/09 14:53:16;;;;;;;4.47;3.00;;;;;;;;;;5113836;27;20493;-72
2023/11/09 14:55:46;;;;;;;8.27;3.13;;;;;;;;;;5114864;27;20457;-71
2023/11/09 14:58:14;;;;;;;5.43;3.27;;;;;;;;;;5106093;28;20491;-70